Latest Weather Observations for Hamilton

IDV60801

Issued at 2:32 am EST Friday 1 July 2016 (issued every 30 minutes, with the page automatically refreshed every 10 minutes)

About weather observations | Map of weather stations | Latest weather observations for VIC | Other Formats
Station Details ID: 090173 Name: HAMILTON AIRPORT Lat: -37.65 Lon: 142.06 Height: 241.1 m
Data from the previous 72 hours. | See also: Recent months at Hamilton
Date/Time
EST
Temp
°C
App
Temp
°C
Dew
Point
°C
Rel
Hum
%
Delta-T
°C
Wind Press
QNH
hPa
Press
MSL
hPa
Rain since
9am
mm
Dir  Spd
km/h
Gust
km/h
Spd
kts
Gust
kts
01/02:30am 8.2 3.4 7.3 94 0.4 WSW 22 33 12 18 1015.8 1016.1 18.8
01/02:03am 8.2 2.6 7.1 93 0.5 SW 26 35 14 19 1015.1 1015.5 18.8
01/02:00am 8.2 2.2 7.1 93 0.5 SW 28 39 15 21 1015.1 1015.5 18.8
01/01:49am 8.3 2.3 7.1 92 0.6 WSW 28 37 15 20 1014.8 1015.2 18.8
01/01:30am 8.4 2.5 7.3 93 0.5 WSW 28 39 15 21 1014.5 1014.9 18.8
01/01:02am 8.4 3.3 7.8 96 0.3 WSW 24 35 13 19 1014.0 1014.3 18.8
01/01:00am 8.4 3.7 7.8 96 0.3 WSW 22 30 12 16 1014.0 1014.3 18.8
01/12:30am 8.4 4.3 7.8 96 0.3 WSW 19 24 10 13 1013.7 1014.0 17.6
01/12:15am 8.4 4.2 7.6 95 0.4 WSW 19 24 10 13 1013.5 1013.8 16.6
01/12:07am 8.4 4.2 7.6 95 0.4 SW 19 26 10 14 1013.3 1013.6 16.2
01/12:00am 8.4 4.2 7.6 95 0.4 WSW 19 24 10 13 1013.2 1013.5 16.0
 
Date/Time
EST
Temp
°C
App
Temp
°C
Dew
Point
°C
Rel
Hum
%
Delta-T
°C
Wind Press
QNH
hPa
Press
MSL
hPa
Rain since
9am
mm
Dir  Spd
km/h
Gust
km/h
Spd
kts
Gust
kts
30/11:50pm 8.4 4.2 7.6 95 0.4 SW 19 24 10 13 1013.0 1013.3 16.0
30/11:30pm 8.4 4.2 7.6 95 0.4 SW 19 24 10 13 1012.8 1013.1 15.6
30/11:00pm 8.3 3.2 7.5 95 0.4 WSW 24 33 13 18 1012.0 1012.3 15.6
30/10:30pm 8.2 2.6 7.3 94 0.4 WSW 26 39 14 21 1011.5 1011.8 15.6
30/10:27pm 8.2 2.6 7.3 94 0.4 WSW 26 33 14 18 1011.3 1011.6 15.6
30/10:20pm 8.2 2.3 7.3 94 0.4 WSW 28 35 15 19 1011.3 1011.6 15.6
30/10:00pm 8.1 2.9 7.3 95 0.4 WSW 24 32 13 17 1010.6 1010.9 15.6
30/09:30pm 8.2 2.3 7.3 94 0.4 WSW 28 43 15 23 1010.1 1010.4 15.4
30/09:13pm 8.1 2.2 7.3 95 0.4 WSW 28 48 15 26 1009.6 1009.9 15.4
30/09:00pm 7.9 3.0 7.1 95 0.4 W 22 32 12 17 1009.3 1009.6 15.2
30/08:58pm 7.9 3.0 7.1 95 0.4 W 22 32 12 17 1009.3 1009.6 15.2
30/08:49pm 7.8 2.6 7.1 95 0.3 W 24 33 13 18 1009.2 1009.5 14.8
30/08:35pm 7.6 2.3 6.7 94 0.4 W 24 35 13 19 1008.7 1009.0 14.4
30/08:30pm 7.4 2.4 6.5 94 0.4 W 22 32 12 17 1008.8 1009.1 14.2
30/08:15pm 7.0 1.9 6.1 94 0.4 WNW 22 32 12 17 1008.5 1008.8 14.2
30/08:00pm 6.8 1.3 5.9 94 0.4 WNW 24 35 13 19 1008.4 1008.7 14.2
30/07:56pm 6.7 1.6 5.8 94 0.4 WNW 22 35 12 19 1008.3 1008.6 14.0
30/07:30pm 6.5 -0.6 5.5 93 0.4 WNW 32 43 17 23 1008.1 1008.4 12.2
30/07:17pm 6.4 -1.0 5.0 91 0.6 NW 33 44 18 24 1007.6 1007.9 10.0
30/07:00pm 6.4 -0.5 4.7 89 0.8 NW 30 41 16 22 1007.3 1007.5 9.0
30/06:52pm 6.5 -1.0 4.7 88 0.8 NW 33 44 18 24 1007.1 1007.3 8.4
30/06:30pm 6.6 -1.3 4.3 85 1.0 NW 35 48 19 26 1007.2 1007.4 7.6
30/06:00pm 7.1 -0.5 3.7 79 1.5 WNW 33 44 18 24 1007.3 1007.5 6.8
30/05:30pm 6.7 -0.9 3.0 77 1.6 WNW 32 44 17 24 1006.9 1007.1 6.8
30/05:00pm 7.4 -0.2 3.1 74 1.8 WNW 32 44 17 24 1006.8 1007.0 6.8
30/04:30pm 7.6 0.1 3.5 75 1.8 WNW 32 41 17 22 1006.7 1006.9 6.8
30/04:19pm 7.4 0.3 3.3 75 1.8 WNW 30 48 16 26 1006.7 1006.9 6.8
30/04:00pm 8.1 0.1 3.6 73 2.0 WNW 35 46 19 25 1006.4 1006.7 6.8
30/03:45pm 8.5 1.1 3.8 72 2.1 WNW 32 52 17 28 1006.3 1006.6 6.8
30/03:30pm 8.7 1.7 3.9 72 2.1 W 30 44 16 24 1006.1 1006.4 6.8
30/03:00pm 8.7 0.5 4.5 75 1.9 WNW 37 57 20 31 1005.9 1006.2 6.8
30/02:30pm 8.0 1.1 4.6 79 1.5 WNW 30 48 16 26 1005.5 1005.8 6.8
30/02:18pm 8.4 1.8 4.4 76 1.8 WNW 28 50 15 27 1005.4 1005.7 6.8
30/02:00pm 7.6 0.4 5.1 84 1.1 WNW 32 43 17 23 1005.5 1005.8 6.8
30/01:45pm 7.5 0.1 5.1 85 1.1 W 33 61 18 33 1005.7 1006.0 6.8
30/01:30pm 7.7 1.8 5.8 88 0.9 WNW 26 33 14 18 1005.8 1006.1 6.6
30/01:13pm 7.4 1.1 5.5 88 0.9 WNW 28 46 15 25 1005.7 1006.0 6.6
30/01:00pm 7.5 0.4 5.6 88 0.9 WNW 32 48 17 26 1005.7 1006.0 6.6
30/12:54pm 7.6 1.3 5.9 89 0.8 WNW 28 48 15 26 1005.8 1006.1 6.4
30/12:44pm 7.7 0.8 6.3 91 0.6 W 32 46 17 25 1005.7 1006.0 6.4
30/12:40pm 7.7 0.6 6.2 90 0.7 W 33 46 18 25 1005.7 1006.0 6.4
30/12:30pm 7.8 -0.5 6.3 90 0.7 WNW 39 65 21 35 1005.8 1006.1 6.4
30/12:24pm 8.0 0.6 6.6 91 0.7 NW 35 65 19 35 1005.8 1006.1 6.4
30/12:22pm 8.6 1.9 7.4 92 0.6 NW 32 59 17 32 1005.5 1005.8 6.2
30/12:14pm 8.8 2.2 7.6 92 0.6 NNW 32 43 17 23 1005.3 1005.6 5.0
30/12:00pm 9.0 2.7 7.6 91 0.7 NNW 30 41 16 22 1005.4 1005.7 4.2
30/11:30am 8.6 1.3 7.4 92 0.6 N 35 43 19 23 1005.9 1006.2 4.0
30/11:00am 8.1 1.4 7.2 94 0.4 N 32 41 17 22 1006.3 1006.6 4.0
30/10:45am 7.6 0.2 6.7 94 0.4 N 35 46 19 25 1006.4 1006.7 4.0
30/10:30am 7.2 0.7 6.3 94 0.4 N 30 39 16 21 1006.9 1007.1 3.4
30/10:28am 7.2 1.0 6.3 94 0.4 N 28 39 15 21 1006.8 1007.0 3.2
30/10:21am 7.1 1.2 6.0 93 0.5 NNW 26 37 14 20 1007.3 1007.5 2.4
30/10:03am 7.2 0.2 6.0 92 0.5 NNW 32 44 17 24 1007.5 1007.8 1.2
30/10:00am 7.2 0.0 6.0 92 0.6 NNW 33 44 18 24 1007.4 1007.6 0.8
30/09:30am 7.4 1.2 6.0 91 0.6 N 28 37 15 20 1007.3 1007.5 0.0
30/09:13am 7.3 0.1 5.8 90 0.7 N 33 44 18 24 1007.4 1007.6 0.0
30/09:12am 7.3 0.1 5.9 91 0.6 N 33 44 18 24 1007.4 1007.6 0.0
30/09:00am 7.2 0.2 6.0 92 0.6 N 32 43 17 23 1007.3 1007.5 2.8
30/08:55am 7.1 0.5 5.9 92 0.5 N 30 39 16 21 1007.5 1007.8 2.8
30/08:53am 7.1 0.5 5.9 92 0.5 N 30 39 16 21 1007.6 1007.9 2.8
30/08:34am 7.0 -0.6 5.8 92 0.5 N 35 46 19 25 1007.7 1008.0 1.8
30/08:30am 7.1 -0.9 5.7 91 0.6 N 37 46 20 25 1007.6 1007.9 1.2
30/08:08am 7.4 -0.6 5.5 88 0.9 N 37 48 20 26 1007.4 1007.6 0.8
30/08:00am 7.3 -0.7 5.6 89 0.8 N 37 50 20 27 1007.6 1007.9 0.8
30/07:57am 7.3 -0.7 5.6 89 0.8 N 37 48 20 26 1007.6 1007.9 0.8
30/07:31am 7.1 -0.9 5.7 91 0.6 N 37 50 20 27 1007.8 1008.1 0.8
30/07:30am 7.1 -0.9 5.7 91 0.6 N 37 50 20 27 1007.9 1008.2 0.8
30/07:12am 7.1 -0.9 5.7 91 0.6 N 37 48 20 26 1007.8 1008.1 0.8
30/07:00am 7.1 -0.5 5.7 91 0.6 N 35 52 19 28 1007.8 1008.1 0.8
30/06:30am 7.5 -0.9 5.5 87 0.9 N 39 54 21 29 1008.1 1008.4 0.8
30/06:00am 7.3 -0.7 5.6 89 0.8 N 37 52 20 28 1008.2 1008.5 0.8
30/05:30am 7.2 -1.5 5.8 91 0.6 N 41 54 22 29 1008.5 1008.8 0.6
30/05:00am 7.5 -0.9 5.6 88 0.9 N 39 52 21 28 1008.8 1009.1 0.2
30/04:30am 7.9 -1.4 5.2 83 1.2 N 43 56 23 30 1009.2 1009.5 0.2
30/04:00am 8.0 -1.3 5.1 82 1.3 N 43 56 23 30 1009.6 1009.9 0.2
30/03:39am 8.0 -0.9 5.1 82 1.3 N 41 59 22 32 1010.0 1010.3 0.0
30/03:30am 8.1 -1.3 5.2 82 1.3 N 44 57 24 31 1010.2 1010.5 0.0
30/03:00am 8.7 -1.3 4.5 75 1.9 N 46 59 25 32 1010.6 1010.9 0.0
30/02:36am 9.0 -0.6 4.4 73 2.1 N 44 63 24 34 1011.2 1011.5 0.0
30/02:30am 9.1 -0.9 4.5 73 2.1 N 46 63 25 34 1011.2 1011.5 0.0
30/02:04am 9.3 -0.3 4.5 72 2.2 N 44 65 24 35 1011.5 1011.8 0.0
30/02:00am 9.3 -0.1 4.5 72 2.2 N 43 56 23 30 1011.6 1011.9 0.0
30/01:30am 9.3 0.3 4.5 72 2.2 N 41 59 22 32 1011.9 1012.2 0.0
30/01:22am 9.4 0.4 4.6 72 2.2 N 41 59 22 32 1012.0 1012.3 0.0
30/01:00am 9.5 0.5 4.5 71 2.3 N 41 57 22 31 1012.5 1012.8 0.0
30/12:30am 9.6 0.2 4.6 71 2.3 N 43 56 23 30 1012.8 1013.1 0.0
30/12:09am 9.4 0.8 4.6 72 2.2 N 39 57 21 31 1013.4 1013.7 0.0
30/12:00am 9.5 0.5 4.7 72 2.2 N 41 57 22 31 1013.5 1013.8 0.0
 
Date/Time
EST
Temp
°C
App
Temp
°C
Dew
Point
°C
Rel
Hum
%
Delta-T
°C
Wind Press
QNH
hPa
Press
MSL
hPa
Rain since
9am
mm
Dir  Spd
km/h
Gust
km/h
Spd
kts
Gust
kts
29/11:44pm 9.3 0.3 4.7 73 2.1 N 41 61 22 33 1013.6 1013.9 0.0
29/11:30pm 9.2 -0.2 4.6 73 2.1 N 43 57 23 31 1013.9 1014.2 0.0
29/11:00pm 9.3 0.3 4.7 73 2.1 N 41 63 22 34 1014.4 1014.8 0.0
29/10:51pm 9.8 0.8 4.4 69 2.4 N 41 61 22 33 1014.3 1014.6 0.0
29/10:30pm 9.9 0.8 3.9 66 2.7 N 41 54 22 29 1014.6 1015.0 0.0
29/10:00pm 9.9 1.5 3.9 66 2.7 N 37 50 20 27 1015.3 1015.6 0.0
29/09:30pm 9.8 2.7 3.8 66 2.7 NNW 30 39 16 21 1016.3 1016.6 0.0
29/09:00pm 9.7 2.7 3.9 67 2.6 N 30 35 16 19 1016.5 1016.8 0.0
29/08:30pm 9.6 3.0 4.0 68 2.5 NNW 28 37 15 20 1017.0 1017.3 0.0
29/08:00pm 9.7 3.5 4.1 68 2.5 N 26 35 14 19 1017.3 1017.6 0.0
29/07:30pm 9.7 3.1 4.3 69 2.4 N 28 39 15 21 1017.2 1017.5 0.0
29/07:00pm 9.8 2.8 4.2 68 2.5 N 30 39 16 21 1017.4 1017.7 0.0
29/06:30pm 9.7 3.2 4.5 70 2.3 N 28 39 15 21 1017.1 1017.4 0.0
29/06:00pm 9.8 4.0 4.2 68 2.5 N 24 35 13 19 1017.4 1017.7 0.0
29/05:30pm 10.1 3.8 3.6 64 2.9 N 26 33 14 18 1017.6 1017.9 0.0
29/05:00pm 9.9 3.3 4.1 67 2.6 N 28 37 15 20 1017.9 1018.3 0.0
29/04:30pm 10.6 3.2 4.1 64 2.9 N 32 46 17 25 1018.3 1018.7 0.0
29/04:00pm 11.1 3.8 4.3 63 3.1 N 32 41 17 22 1018.8 1019.2 0.0
29/03:30pm 11.2 3.2 4.0 61 3.3 N 35 44 19 24 1019.3 1019.7 0.0
29/03:00pm 11.6 3.7 4.3 61 3.3 N 35 48 19 26 1019.6 1019.9 0.0
29/02:30pm 11.6 3.9 5.3 65 2.9 N 35 46 19 25 1019.9 1020.2 0.0
29/02:18pm 12.1 4.9 5.9 66 2.9 N 33 52 18 28 1020.1 1020.4 0.0
29/02:00pm 12.2 4.6 5.8 65 3.0 NNW 35 44 19 24 1020.5 1020.8 0.0
29/01:30pm 11.8 5.2 6.1 68 2.7 NNW 30 39 16 21 1021.2 1021.5 0.0
29/01:00pm 11.5 4.5 5.8 68 2.7 NNW 32 41 17 22 1021.8 1022.2 0.0
29/12:30pm 11.8 5.6 6.1 68 2.7 N 28 39 15 21 1022.5 1022.9 0.0
29/12:00pm 11.9 6.4 6.0 67 2.8 N 24 33 13 18 1023.0 1023.4 0.0
29/11:30am 10.6 4.4 6.0 73 2.2 N 28 39 15 21 1023.7 1024.1 0.0
29/11:00am 10.8 5.1 6.6 75 2.0 N 26 33 14 18 1024.3 1024.6 0.0
29/10:30am 10.0 6.1 7.3 83 1.3 N 17 26 9 14 1024.7 1025.0 0.0
29/10:00am 8.6 4.2 6.6 87 0.9 N 19 24 10 13 1025.1 1025.5 0.0
29/09:30am 7.8 3.2 6.3 90 0.7 N 20 24 11 13 1025.1 1025.5 0.0
29/09:00am 6.7 2.1 5.7 93 0.4 N 19 22 10 12 1025.1 1025.5 0.8
29/08:30am 6.4 2.2 5.5 94 0.4 N 17 22 9 12 1025.3 1025.7 0.8
29/08:00am 5.7 1.7 5.0 95 0.3 N 15 19 8 10 1025.3 1025.7 0.8
29/07:30am 5.5 1.9 4.8 95 0.3 N 13 17 7 9 1025.2 1025.6 0.8
29/07:00am 5.6 1.6 4.7 94 0.4 N 15 17 8 9 1025.2 1025.6 0.8
29/06:30am 5.8 1.8 4.8 93 0.4 N 15 17 8 9 1025.1 1025.5 0.8
29/06:00am 6.4 2.1 5.4 93 0.4 N 17 19 9 10 1025.1 1025.5 0.8
29/05:30am 6.6 2.4 5.9 95 0.3 N 17 20 9 11 1024.9 1025.3 0.8
29/05:00am 6.1 1.8 5.4 95 0.3 N 17 20 9 11 1024.7 1025.0 0.8
29/04:30am 6.3 2.4 5.4 94 0.4 N 15 19 8 10 1024.8 1025.1 0.8
29/04:00am 6.5 2.6 5.3 92 0.5 NNW 15 17 8 9 1024.9 1025.3 0.8
29/03:35am 7.5 3.0 6.1 91 0.6 NNW 19 28 10 15 1025.1 1025.5 0.8
29/03:30am 7.5 3.4 6.0 90 0.7 NNW 17 22 9 12 1025.2 1025.6 0.8
29/03:15am 7.9 3.8 6.4 90 0.7 NNW 17 20 9 11 1025.3 1025.7 0.8
29/03:00am 8.0 3.9 6.3 89 0.8 NNW 17 20 9 11 1025.2 1025.6 0.8
29/02:30am 8.3 4.3 6.8 90 0.7 NNW 17 20 9 11 1025.2 1025.6 0.8
29/02:00am 8.2 3.9 6.8 91 0.7 NNW 19 22 10 12 1025.1 1025.5 0.8
29/01:30am 8.4 4.1 7.2 92 0.6 NNW 19 22 10 12 1025.0 1025.4 0.8
29/01:00am 8.7 4.8 7.3 91 0.7 NNW 17 20 9 11 1025.2 1025.6 0.8
29/12:30am 9.0 5.2 7.6 91 0.7 NNW 17 22 9 12 1025.4 1025.8 0.8
29/12:00am 9.3 5.3 8.1 92 0.6 NNW 19 22 10 12 1025.5 1025.9 0.8
 
Date/Time
EST
Temp
°C
App
Temp
°C
Dew
Point
°C
Rel
Hum
%
Delta-T
°C
Wind Press
QNH
hPa
Press
MSL
hPa
Rain since
9am
mm
Dir  Spd
km/h
Gust
km/h
Spd
kts
Gust
kts
28/11:30pm 9.4 5.5 8.5 94 0.4 NNW 19 22 10 12 1025.5 1025.9 0.8
28/11:00pm 9.4 5.5 8.8 96 0.3 NNW 19 24 10 13 1025.6 1026.0 0.8
28/10:30pm 9.4 5.3 8.8 96 0.3 NNW 20 24 11 13 1025.6 1026.0 0.6
28/10:00pm 9.3 5.8 8.7 96 0.3 NNW 17 22 9 12 1025.6 1026.0 0.6
28/09:30pm 9.5 6.0 8.7 95 0.4 NNW 17 20 9 11 1025.7 1026.1 0.6
28/09:00pm 10.0 6.6 9.2 95 0.4 NNW 17 20 9 11 1025.5 1025.9 0.6
28/08:30pm 10.1 6.7 9.2 94 0.5 NNW 17 22 9 12 1025.6 1026.0 0.6
28/08:00pm 9.8 6.6 8.6 92 0.6 NNW 15 17 8 9 1025.4 1025.8 0.6
28/07:30pm 10.3 7.5 8.6 89 0.8 NNW 13 15 7 8 1025.2 1025.6 0.6
28/07:00pm 10.8 7.6 8.6 86 1.1 NNW 15 19 8 10 1025.1 1025.5 0.6
28/06:30pm 11.0 7.8 8.4 84 1.3 NW 15 20 8 11 1024.7 1025.0 0.6
28/06:00pm 10.9 7.7 8.5 85 1.2 NNW 15 20 8 11 1024.4 1024.7 0.6
28/05:30pm 11.3 8.1 8.5 83 1.4 NNW 15 22 8 12 1024.1 1024.4 0.6
28/05:00pm 11.6 8.1 8.6 82 1.5 NW 17 20 9 11 1023.8 1024.2 0.6
28/04:30pm 11.9 8.5 9.3 84 1.3 NW 17 22 9 12 1023.7 1024.1 0.6
28/04:00pm 12.4 8.7 10.3 87 1.1 NNW 20 26 11 14 1023.5 1023.9 0.6
28/03:30pm 12.3 9.3 10.5 89 0.9 NNW 17 20 9 11 1023.5 1023.9 0.6
28/03:14pm 12.3 8.9 10.7 90 0.8 NNW 19 24 10 13 1023.4 1023.8 0.6
28/03:00pm 12.2 8.2 10.4 89 0.9 NNW 22 30 12 16 1023.4 1023.8 0.6
28/02:45pm 12.0 8.6 10.6 91 0.7 NNW 19 30 10 16 1023.3 1023.7 0.6
28/02:30pm 11.9 8.2 10.0 88 1.0 NNW 20 24 11 13 1023.4 1023.8 0.0
28/02:25pm 11.9 8.2 10.0 88 1.0 NNW 20 26 11 14 1023.4 1023.8 0.0
28/02:00pm 12.2 8.2 10.4 89 0.9 NNW 22 28 12 15 1023.5 1023.9 0.0
28/01:30pm 11.7 7.6 10.1 90 0.8 NNW 22 28 12 15 1023.7 1024.1 0.0
28/01:00pm 11.5 7.3 9.9 90 0.8 NW 22 30 12 16 1024.0 1024.3 0.0
28/12:30pm 11.1 7.4 10.0 93 0.6 NW 20 30 11 16 1024.0 1024.3 0.0
28/12:00pm 10.4 6.2 9.8 96 0.3 NW 22 28 12 15 1024.4 1024.7 0.0
28/11:30am 9.9 5.7 9.6 98 0.2 NNW 22 28 12 15 1024.6 1024.9 0.0
28/11:00am 9.7 5.4 9.4 98 0.2 NNW 22 28 12 15 1024.4 1024.7 0.0
28/10:30am 9.0 4.9 8.7 98 0.1 NNW 20 28 11 15 1024.3 1024.6 0.0
28/10:25am 8.7 4.5 8.4 98 0.1 NNW 20 28 11 15 1024.3 1024.6 0.0
28/10:00am 8.5 4.3 8.2 98 0.1 NNW 20 26 11 14 1024.2 1024.5 0.0
28/09:30am 8.2 3.9 7.9 98 0.1 NNW 20 24 11 13 1024.0 1024.3 0.0
28/09:00am 7.5 2.7 7.2 98 0.1 NNW 22 28 12 15 1023.5 1023.9 0.4
28/08:30am 7.5 3.1 7.2 98 0.1 NNW 20 26 11 14 1023.2 1023.6 0.4
28/08:00am 7.3 2.4 6.9 97 0.2 NNW 22 24 12 13 1022.8 1023.2 0.4
28/07:30am 7.1 2.7 6.7 97 0.2 NNW 19 22 10 12 1022.6 1023.0 0.4
28/07:25am 7.1 2.7 6.7 97 0.2 NNW 19 22 10 12 1022.6 1023.0 0.4
28/07:00am 6.9 2.9 6.5 97 0.2 NNW 17 20 9 11 1022.4 1022.8 0.2
28/06:52am 6.9 2.5 6.5 97 0.2 NNW 19 22 10 12 1022.4 1022.8 0.2
28/06:41am 6.7 2.2 6.3 97 0.2 NNW 19 24 10 13 1022.2 1022.6 0.2
28/06:30am 6.6 2.1 6.2 97 0.2 NNW 19 24 10 13 1022.0 1022.4 0.2
28/06:00am 6.6 2.1 6.2 97 0.2 NNW 19 24 10 13 1021.6 1022.0 0.2
28/05:30am 7.0 2.4 6.6 97 0.2 NNW 20 26 11 14 1021.3 1021.6 0.2
28/05:26am 7.0 2.4 6.6 97 0.2 NNW 20 26 11 14 1021.3 1021.6 0.2
28/05:00am 7.0 2.4 6.6 97 0.2 NNW 20 26 11 14 1021.3 1021.6 0.2
28/04:34am 6.6 2.5 6.0 96 0.3 NNW 17 22 9 12 1021.4 1021.8 0.2
28/04:30am 6.4 2.2 5.8 96 0.3 NNW 17 22 9 12 1021.4 1021.8 0.2
28/04:11am 6.1 1.9 5.5 96 0.3 NNW 17 20 9 11 1021.5 1021.9 0.2
28/04:00am 5.4 1.0 4.7 95 0.3 NNW 17 20 9 11 1021.4 1021.8 0.2
28/03:30am 5.3 0.5 4.6 95 0.3 NNW 19 20 10 11 1021.5 1021.9 0.2
28/03:00am 5.3 0.5 4.6 95 0.3 NNW 19 20 10 11 1021.5 1021.9 0.2

Other Formats:

Comma delimited format used in spreadsheet applications
http://www.bom.gov.au/fwo/IDV60801/IDV60801.94829.axf

JavaScript Object Notation format (JSON) in row-major order
http://www.bom.gov.au/fwo/IDV60801/IDV60801.94829.json